Archival Weather

Luke Afb

Glendale, Arizona (KLUF)

Report from: Friday, April 19, 2024 12:55 AM MST
Current time: Monday, June 24, 2024 3:52 AM MST

Current weather – Weather history – Daily summaries
Weather forecast

Temperature19.3°C (66.7°F)
Dew point1.3°C (34.3°F)
Winds Calm
Visibility10 mi. (16.1 km)
Clouds Sky clear
Altimeter29.84 in.Hg (1010 mB)
Relative humidity30 %
Density altitude741 ft. (226 m)
Sea-level pressure100.9 kPa (1009 mB, 29.80 in.Hg)
Remarks Fully automated report
System requires maintenance
Automated weather observing station with precipitation discriminator
Flight conditions Visual Meteorological Conditions
Raw dataKLUF 190755Z AUTO 00000KT 10SM CLR 19/01 A2984 RMK AO2 SLP093 T01930013 $
An error has occurred. This application may no longer respond until reloaded. Reload 🗙